sensor_id;sensor_type;location;lat;lon;timestamp;P1;durP1;ratioP1;P2;durP2;ratioP2
75516;SDS011;64097;52.548;13.406;2022-11-20T06:02:49;13.80;;;10.30;;
75516;SDS011;64097;52.548;13.406;2022-11-20T06:05:15;12.30;;;10.32;;
75516;SDS011;64097;52.548;13.406;2022-11-20T06:07:41;11.98;;;9.82;;
75516;SDS011;64097;52.548;13.406;2022-11-20T06:10:07;14.07;;;10.73;;
75516;SDS011;64097;52.548;13.406;2022-11-20T06:12:33;13.23;;;10.20;;
75516;SDS011;64097;52.548;13.406;2022-11-20T06:14:59;12.20;;;9.88;;
75516;SDS011;64097;52.548;13.406;2022-11-20T06:17:25;12.68;;;9.50;;
75516;SDS011;64097;52.548;13.406;2022-11-20T06:19:50;13.38;;;10.70;;
75516;SDS011;64097;52.548;13.406;2022-11-20T06:22:16;10.77;;;8.95;;
75516;SDS011;64097;52.548;13.406;2022-11-20T06:24:42;13.77;;;10.05;;
75516;SDS011;64097;52.548;13.406;2022-11-20T06:27:07;11.95;;;9.35;;
75516;SDS011;64097;52.548;13.406;2022-11-20T06:29:33;12.63;;;10.07;;
75516;SDS011;64097;52.548;13.406;2022-11-20T06:31:59;12.43;;;10.25;;
75516;SDS011;64097;52.548;13.406;2022-11-20T06:34:25;12.43;;;9.77;;
75516;SDS011;64097;52.548;13.406;2022-11-20T06:36:51;13.40;;;10.40;;
75516;SDS011;64097;52.548;13.406;2022-11-20T06:39:17;12.48;;;9.90;;
75516;SDS011;64097;52.548;13.406;2022-11-20T06:41:42;13.63;;;10.32;;
75516;SDS011;64097;52.548;13.406;2022-11-20T06:44:08;12.52;;;9.77;;
75516;SDS011;64097;52.548;13.406;2022-11-20T06:46:34;12.40;;;10.18;;
75516;SDS011;64097;52.548;13.406;2022-11-20T06:48:59;12.07;;;9.93;;
75516;SDS011;64097;52.548;13.406;2022-11-20T06:51:25;12.93;;;10.43;;
75516;SDS011;64097;52.548;13.406;2022-11-20T06:53:51;12.50;;;10.25;;
75516;SDS011;64097;52.548;13.406;2022-11-20T06:56:16;13.15;;;10.48;;
75516;SDS011;64097;52.548;13.406;2022-11-20T06:58:42;13.85;;;10.80;;
75516;SDS011;64097;52.548;13.406;2022-11-20T07:01:12;12.45;;;10.60;;
75516;SDS011;64097;52.548;13.406;2022-11-20T07:03:39;11.85;;;9.95;;
75516;SDS011;64097;52.548;13.406;2022-11-20T07:06:05;13.05;;;10.15;;
75516;SDS011;64097;52.548;13.406;2022-11-20T07:08:32;14.88;;;11.43;;
75516;SDS011;64097;52.548;13.406;2022-11-20T07:10:59;14.25;;;12.02;;
75516;SDS011;64097;52.548;13.406;2022-11-20T07:13:29;12.57;;;10.50;;
75516;SDS011;64097;52.548;13.406;2022-11-20T07:15:59;14.43;;;11.15;;
75516;SDS011;64097;52.548;13.406;2022-11-20T07:18:26;13.25;;;9.95;;
75516;SDS011;64097;52.548;13.406;2022-11-20T07:20:52;15.73;;;12.15;;
75516;SDS011;64097;52.548;13.406;2022-11-20T07:23:18;12.20;;;10.40;;
75516;SDS011;64097;52.548;13.406;2022-11-20T07:25:44;12.93;;;10.20;;
75516;SDS011;64097;52.548;13.406;2022-11-20T07:28:09;14.50;;;11.60;;
75516;SDS011;64097;52.548;13.406;2022-11-20T07:30:35;13.00;;;10.45;;
75516;SDS011;64097;52.548;13.406;2022-11-20T07:33:01;15.05;;;10.73;;
75516;SDS011;64097;52.548;13.406;2022-11-20T07:35:27;12.88;;;10.25;;
75516;SDS011;64097;52.548;13.406;2022-11-20T07:37:53;12.57;;;10.48;;
75516;SDS011;64097;52.548;13.406;2022-11-20T07:40:18;14.13;;;11.48;;
75516;SDS011;64097;52.548;13.406;2022-11-20T07:42:51;12.60;;;10.63;;
75516;SDS011;64097;52.548;13.406;2022-11-20T07:45:18;11.88;;;9.70;;
75516;SDS011;64097;52.548;13.406;2022-11-20T07:47:45;12.88;;;9.95;;
75516;SDS011;64097;52.548;13.406;2022-11-20T07:50:11;13.02;;;10.60;;
75516;SDS011;64097;52.548;13.406;2022-11-20T07:52:37;13.88;;;10.82;;
75516;SDS011;64097;52.548;13.406;2022-11-20T07:55:03;13.38;;;10.82;;
75516;SDS011;64097;52.548;13.406;2022-11-20T07:57:30;12.77;;;10.80;;
75516;SDS011;64097;52.548;13.406;2022-11-20T07:59:55;13.88;;;11.25;;
75516;SDS011;64097;52.548;13.406;2022-11-20T08:02:21;13.77;;;11.10;;
75516;SDS011;64097;52.548;13.406;2022-11-20T08:04:47;15.80;;;11.98;;
75516;SDS011;64097;52.548;13.406;2022-11-20T08:07:13;14.10;;;11.60;;
75516;SDS011;64097;52.548;13.406;2022-11-20T08:09:38;15.35;;;12.35;;
75516;SDS011;64097;52.548;13.406;2022-11-20T08:12:04;15.50;;;12.63;;
75516;SDS011;64097;52.548;13.406;2022-11-20T08:14:48;14.95;;;11.18;;
75516;SDS011;64097;52.548;13.406;2022-11-20T08:17:14;14.68;;;11.35;;
75516;SDS011;64097;52.548;13.406;2022-11-20T08:19:40;15.32;;;11.38;;
75516;SDS011;64097;52.548;13.406;2022-11-20T08:22:05;14.65;;;12.52;;
75516;SDS011;64097;52.548;13.406;2022-11-20T08:24:31;17.42;;;13.13;;
75516;SDS011;64097;52.548;13.406;2022-11-20T08:26:57;14.65;;;11.95;;
75516;SDS011;64097;52.548;13.406;2022-11-20T08:29:24;15.55;;;11.80;;
75516;SDS011;64097;52.548;13.406;2022-11-20T08:31:51;14.48;;;11.57;;
75516;SDS011;64097;52.548;13.406;2022-11-20T08:34:17;15.48;;;12.27;;
75516;SDS011;64097;52.548;13.406;2022-11-20T08:36:42;16.48;;;13.30;;
75516;SDS011;64097;52.548;13.406;2022-11-20T08:39:11;14.38;;;11.45;;
75516;SDS011;64097;52.548;13.406;2022-11-20T08:41:37;16.15;;;12.55;;
75516;SDS011;64097;52.548;13.406;2022-11-20T08:44:03;17.15;;;12.77;;
75516;SDS011;64097;52.548;13.406;2022-11-20T08:46:35;15.40;;;11.85;;
75516;SDS011;64097;52.548;13.406;2022-11-20T08:49:06;16.60;;;13.13;;
75516;SDS011;64097;52.548;13.406;2022-11-20T08:51:34;14.98;;;12.25;;
75516;SDS011;64097;52.548;13.406;2022-11-20T08:54:00;14.82;;;11.63;;
75516;SDS011;64097;52.548;13.406;2022-11-20T08:56:26;14.75;;;11.93;;
75516;SDS011;64097;52.548;13.406;2022-11-20T08:58:52;15.10;;;12.18;;
75516;SDS011;64097;52.548;13.406;2022-11-20T09:01:18;18.55;;;14.50;;
75516;SDS011;64097;52.548;13.406;2022-11-20T09:03:45;17.00;;;13.35;;
75516;SDS011;64097;52.548;13.406;2022-11-20T09:06:11;16.17;;;12.60;;
75516;SDS011;64097;52.548;13.406;2022-11-20T09:08:37;16.80;;;13.43;;
75516;SDS011;64097;52.548;13.406;2022-11-20T09:11:03;15.60;;;12.10;;
75516;SDS011;64097;52.548;13.406;2022-11-20T09:13:29;14.88;;;11.93;;
75516;SDS011;64097;52.548;13.406;2022-11-20T09:15:56;17.63;;;13.20;;
75516;SDS011;64097;52.548;13.406;2022-11-20T09:18:24;18.90;;;13.55;;
75516;SDS011;64097;52.548;13.406;2022-11-20T09:20:50;18.05;;;13.82;;
75516;SDS011;64097;52.548;13.406;2022-11-20T09:23:16;16.95;;;13.25;;
75516;SDS011;64097;52.548;13.406;2022-11-20T09:25:42;14.75;;;11.80;;
75516;SDS011;64097;52.548;13.406;2022-11-20T09:28:09;14.52;;;11.30;;
75516;SDS011;64097;52.548;13.406;2022-11-20T09:30:34;16.08;;;12.10;;
75516;SDS011;64097;52.548;13.406;2022-11-20T09:33:00;14.68;;;11.30;;
75516;SDS011;64097;52.548;13.406;2022-11-20T09:35:26;19.98;;;13.88;;
75516;SDS011;64097;52.548;13.406;2022-11-20T09:37:52;15.57;;;11.85;;
75516;SDS011;64097;52.548;13.406;2022-11-20T09:56:08;14.40;;;11.57;;
75516;SDS011;64097;52.548;13.406;2022-11-20T09:58:38;14.68;;;11.25;;
75516;SDS011;64097;52.548;13.406;2022-11-20T10:01:15;14.50;;;10.80;;
75516;SDS011;64097;52.548;13.406;2022-11-20T10:03:54;17.27;;;12.73;;
75516;SDS011;64097;52.548;13.406;2022-11-20T10:06:42;12.55;;;10.55;;
75516;SDS011;64097;52.548;13.406;2022-11-20T10:20:10;14.48;;;11.75;;
75516;SDS011;64097;52.548;13.406;2022-11-20T10:22:47;16.08;;;12.45;;
75516;SDS011;64097;52.548;13.406;2022-11-20T10:25:19;17.00;;;13.85;;
75516;SDS011;64097;52.548;13.406;2022-11-20T10:30:19;13.07;;;10.85;;
75516;SDS011;64097;52.548;13.406;2022-11-20T10:32:58;14.55;;;11.60;;
75516;SDS011;64097;52.548;13.406;2022-11-20T10:38:42;13.95;;;11.35;;
75516;SDS011;64097;52.548;13.406;2022-11-20T10:41:15;14.30;;;11.63;;
75516;SDS011;64097;52.548;13.406;2022-11-20T10:44:10;13.93;;;11.05;;
75516;SDS011;64097;52.548;13.406;2022-11-20T10:47:03;12.73;;;10.60;;
75516;SDS011;64097;52.548;13.406;2022-11-20T10:49:30;15.85;;;12.60;;
75516;SDS011;64097;52.548;13.406;2022-11-20T10:52:13;14.05;;;11.65;;
75516;SDS011;64097;52.548;13.406;2022-11-20T11:00:04;13.98;;;10.93;;
75516;SDS011;64097;52.548;13.406;2022-11-20T11:02:53;11.93;;;10.35;;
75516;SDS011;64097;52.548;13.406;2022-11-20T11:08:28;14.98;;;11.82;;
75516;SDS011;64097;52.548;13.406;2022-11-20T11:11:07;14.45;;;11.65;;
75516;SDS011;64097;52.548;13.406;2022-11-20T11:13:40;11.32;;;9.77;;
75516;SDS011;64097;52.548;13.406;2022-11-20T11:16:06;12.50;;;10.43;;
75516;SDS011;64097;52.548;13.406;2022-11-20T11:18:50;13.05;;;11.07;;
75516;SDS011;64097;52.548;13.406;2022-11-20T11:21:25;14.48;;;11.27;;
75516;SDS011;64097;52.548;13.406;2022-11-20T11:24:02;14.23;;;11.02;;
75516;SDS011;64097;52.548;13.406;2022-11-20T11:26:29;14.32;;;11.95;;
75516;SDS011;64097;52.548;13.406;2022-11-20T11:28:58;15.02;;;11.45;;
75516;SDS011;64097;52.548;13.406;2022-11-20T11:31:26;15.45;;;12.05;;
75516;SDS011;64097;52.548;13.406;2022-11-20T11:34:06;13.80;;;11.25;;
75516;SDS011;64097;52.548;13.406;2022-11-20T11:36:34;12.25;;;10.43;;
75516;SDS011;64097;52.548;13.406;2022-11-20T11:39:00;12.52;;;10.18;;
75516;SDS011;64097;52.548;13.406;2022-11-20T11:41:29;11.00;;;9.52;;
75516;SDS011;64097;52.548;13.406;2022-11-20T11:44:22;11.50;;;9.95;;
75516;SDS011;64097;52.548;13.406;2022-11-20T11:47:23;12.80;;;9.52;;
75516;SDS011;64097;52.548;13.406;2022-11-20T11:55:12;11.55;;;9.10;;
75516;SDS011;64097;52.548;13.406;2022-11-20T12:00:32;11.20;;;8.82;;
75516;SDS011;64097;52.548;13.406;2022-11-20T12:03:08;13.40;;;9.70;;
75516;SDS011;64097;52.548;13.406;2022-11-20T12:05:46;12.48;;;9.50;;
75516;SDS011;64097;52.548;13.406;2022-11-20T12:08:27;10.50;;;8.98;;
75516;SDS011;64097;52.548;13.406;2022-11-20T12:13:34;10.93;;;9.15;;
75516;SDS011;64097;52.548;13.406;2022-11-20T12:16:27;11.27;;;8.32;;
75516;SDS011;64097;52.548;13.406;2022-11-20T12:18:55;10.43;;;8.27;;
75516;SDS011;64097;52.548;13.406;2022-11-20T12:21:34;10.70;;;9.23;;
75516;SDS011;64097;52.548;13.406;2022-11-20T12:29:58;9.60;;;8.18;;
75516;SDS011;64097;52.548;13.406;2022-11-20T12:43:27;11.98;;;9.32;;
75516;SDS011;64097;52.548;13.406;2022-11-20T13:08:04;7.28;;;6.00;;
75516;SDS011;64097;52.548;13.406;2022-11-20T13:10:43;9.00;;;7.60;;
75516;SDS011;64097;52.548;13.406;2022-11-20T13:15:53;8.65;;;6.75;;
75516;SDS011;64097;52.548;13.406;2022-11-20T13:18:21;7.28;;;6.35;;
75516;SDS011;64097;52.548;13.406;2022-11-20T13:20:47;8.15;;;6.65;;
75516;SDS011;64097;52.548;13.406;2022-11-20T13:23:24;7.97;;;7.13;;
75516;SDS011;64097;52.548;13.406;2022-11-20T13:28:48;9.07;;;7.93;;
75516;SDS011;64097;52.548;13.406;2022-11-20T13:31:31;9.05;;;7.55;;
75516;SDS011;64097;52.548;13.406;2022-11-20T13:33:59;9.05;;;7.72;;
75516;SDS011;64097;52.548;13.406;2022-11-20T13:36:27;8.15;;;7.20;;
75516;SDS011;64097;52.548;13.406;2022-11-20T13:38:55;10.20;;;7.68;;
75516;SDS011;64097;52.548;13.406;2022-11-20T13:41:34;8.15;;;6.93;;
75516;SDS011;64097;52.548;13.406;2022-11-20T13:46:49;7.50;;;6.38;;
75516;SDS011;64097;52.548;13.406;2022-11-20T13:54:57;9.65;;;8.20;;
